Time;durP1;ratioP1;P1;durP2;ratioP2;P2;SDS_P1;SDS_P2;PMS_P1;PMS_P2;Temp;Humidity;BMP_temperature;BMP_pressure;BME280_temperature;BME280_humidity;BME280_pressure;Samples;Min_cycle;Max_cycle;Signal;HPM_P1;HPM_P2
2021/10/26 00:01:47;;;;;;;4.77;2.40;;;;;;;21.02;47.85;101690.63;5092682;28;20348;-61
2021/10/26 00:04:12;;;;;;;4.25;2.22;;;;;;;21.00;47.74;101687.25;5092908;28;20281;-60
2021/10/26 00:06:38;;;;;;;4.63;2.60;;;;;;;21.00;47.74;101700.50;5093306;28;20040;-61
2021/10/26 00:09:05;;;;;;;4.65;2.53;;;;;;;20.96;47.71;101705.19;5091996;28;20324;-61
2021/10/26 00:11:30;;;;;;;4.57;2.70;;;;;;;20.94;47.85;101709.78;5092991;28;20154;-61
2021/10/26 00:13:56;;;;;;;4.88;2.40;;;;;;;20.94;47.77;101711.59;5093035;28;20114;-61
2021/10/26 00:16:21;;;;;;;4.40;2.53;;;;;;;20.92;47.72;101713.50;5092343;28;20032;-60
2021/10/26 00:18:46;;;;;;;4.50;2.45;;;;;;;20.90;47.74;101707.50;5092940;28;20039;-59
2021/10/26 00:21:12;;;;;;;4.50;2.70;;;;;;;20.88;47.79;101712.91;5092610;28;20039;-60
2021/10/26 00:23:37;;;;;;;4.38;2.47;;;;;;;20.86;47.83;101717.50;5092213;28;20031;-61
2021/10/26 00:26:04;;;;;;;4.60;2.42;;;;;;;20.84;47.69;101714.13;5092450;28;20024;-60
2021/10/26 00:28:32;;;;;;;4.60;2.35;;;;;;;20.84;47.88;101722.09;5092248;28;20355;-60
2021/10/26 00:30:58;;;;;;;4.10;2.40;;;;;;;20.83;47.82;101721.22;5092392;28;20474;-60
2021/10/26 00:33:23;;;;;;;4.85;2.50;;;;;;;20.81;47.91;101715.22;5092572;28;20093;-60
2021/10/26 00:35:49;;;;;;;4.70;2.85;;;;;;;20.79;47.85;101724.22;5092129;28;20028;-61
2021/10/26 00:38:14;;;;;;;4.93;2.30;;;;;;;20.80;47.65;101718.81;5092426;28;20028;-61
2021/10/26 00:40:42;;;;;;;5.53;2.63;;;;;;;20.78;47.72;101715.44;5092601;28;20526;-61
2021/10/26 00:43:07;;;;;;;5.00;2.58;;;;;;;20.78;47.87;101719.91;5091532;28;20032;-60
2021/10/26 00:45:33;;;;;;;4.47;2.50;;;;;;;20.76;48.01;101722.69;5092562;28;20032;-60
2021/10/26 00:47:58;;;;;;;4.60;2.67;;;;;;;20.75;48.09;101721.00;5092237;28;20276;-60
2021/10/26 00:50:23;;;;;;;5.53;3.40;;;;;;;20.75;47.89;101725.47;5091789;28;20036;-61
2021/10/26 00:52:48;;;;;;;4.93;3.23;;;;;;;20.74;47.99;101727.25;5092391;28;20309;-60
2021/10/26 00:55:14;;;;;;;5.10;2.83;;;;;;;20.72;47.82;101729.16;5092104;28;20299;-60
2021/10/26 00:57:39;;;;;;;4.10;2.47;;;;;;;20.73;47.87;101724.72;5091723;28;20368;-60
2021/10/26 01:00:07;;;;;;;4.75;2.53;;;;;;;20.72;47.87;101731.00;5092253;28;20032;-60
2021/10/26 01:02:32;;;;;;;4.38;2.40;;;;;;;20.72;47.93;101731.00;5092383;28;20489;-60
2021/10/26 01:05:05;;;;;;;5.43;2.58;;;;;;;20.70;47.91;101724.97;5091738;28;20024;-61
2021/10/26 01:07:34;;;;;;;6.93;2.78;;;;;;;20.68;47.78;101727.75;5092580;28;20118;-61
2021/10/26 01:10:00;;;;;;;4.40;2.60;;;;;;;20.67;47.71;101730.50;5091995;28;20020;-60
2021/10/26 01:12:25;;;;;;;5.20;2.50;;;;;;;20.65;47.71;101731.47;5091702;28;20024;-60
2021/10/26 01:14:51;;;;;;;4.75;2.60;;;;;;;20.63;47.89;101733.38;5092219;28;20028;-60
2021/10/26 01:17:17;;;;;;;7.20;2.72;;;;;;;20.63;47.77;101736.03;5092157;28;20040;-60
2021/10/26 01:19:46;;;;;;;5.00;2.60;;;;;;;20.62;47.95;101738.78;5091622;28;20012;-60
2021/10/26 01:22:11;;;;;;;4.68;2.50;;;;;;;20.61;47.99;101734.44;5092172;28;20043;-60
2021/10/26 01:24:37;;;;;;;5.40;2.55;;;;;;;20.60;47.78;101746.84;5092328;28;20095;-61
2021/10/26 01:27:02;;;;;;;4.40;2.72;;;;;;;20.59;47.95;101747.78;5091326;28;20051;-61
2021/10/26 01:29:28;;;;;;;5.43;2.83;;;;;;;20.58;47.85;101743.44;5092453;28;20538;-61
2021/10/26 01:31:53;;;;;;;4.90;2.70;;;;;;;20.56;48.01;101732.16;5091474;28;20474;-60
2021/10/26 01:34:19;;;;;;;5.00;2.63;;;;;;;20.57;47.67;101735.63;5091904;28;20387;-61
2021/10/26 01:36:44;;;;;;;5.32;2.92;;;;;;;20.56;47.72;101740.09;5092083;28;20490;-61
2021/10/26 01:39:09;;;;;;;6.23;2.80;;;;;;;20.56;47.77;101736.59;5091015;28;20040;-61
2021/10/26 01:41:34;;;;;;;4.70;2.47;;;;;;;20.55;47.77;101743.69;5092288;28;20325;-61
2021/10/26 01:44:00;;;;;;;6.07;2.53;;;;;;;20.55;47.64;101742.84;5091875;28;20027;-60
2021/10/26 01:46:25;;;;;;;4.55;2.72;;;;;;;20.54;47.74;101742.03;5091461;28;20032;-60
2021/10/26 01:48:50;;;;;;;5.38;2.70;;;;;;;20.52;47.60;101736.00;5092147;28;20024;-60
2021/10/26 01:51:16;;;;;;;5.32;2.83;;;;;;;20.51;47.87;101738.78;5091564;28;20533;-61
2021/10/26 01:53:42;;;;;;;4.93;2.38;;;;;;;20.49;47.74;101738.91;5091044;28;20518;-61
2021/10/26 01:56:07;;;;;;;5.65;3.10;;;;;;;20.47;47.78;101746.97;5091801;28;20024;-61
2021/10/26 01:58:33;;;;;;;5.95;2.92;;;;;;;20.46;47.79;101744.44;5092120;28;20020;-60
2021/10/26 02:00:58;;;;;;;4.90;2.72;;;;;;;20.45;47.82;101742.72;5093897;28;20058;-60
2021/10/26 02:03:23;;;;;;;5.07;2.87;;;;;;;20.43;47.88;101742.84;5095657;28;20024;-61
2021/10/26 02:05:48;;;;;;;5.85;2.95;;;;;;;20.43;47.68;101745.50;5095636;28;20359;-60
2021/10/26 02:08:14;;;;;;;5.60;2.65;;;;;;;20.42;47.69;101749.09;5094331;28;20032;-61
2021/10/26 02:10:39;;;;;;;4.65;2.70;;;;;;;20.40;47.75;101745.72;5095693;28;20127;-61
2021/10/26 02:13:04;;;;;;;4.70;2.50;;;;;;;20.40;47.98;101752.84;5095137;28;20032;-60
2021/10/26 02:15:30;;;;;;;4.47;2.60;;;;;;;20.40;47.76;101750.19;5094900;28;20394;-59
2021/10/26 02:17:55;;;;;;;4.40;2.40;;;;;;;20.38;48.06;101750.31;5095285;28;20325;-60
2021/10/26 02:20:20;;;;;;;5.28;2.63;;;;;;;20.37;47.95;101740.66;5095070;28;20272;-60
2021/10/26 02:22:45;;;;;;;5.45;2.58;;;;;;;20.36;47.86;101746.94;5094488;28;20123;-60
2021/10/26 02:25:11;;;;;;;5.68;3.40;;;;;;;20.36;47.82;101738.13;5094685;28;20026;-61
2021/10/26 02:27:36;;;;;;;4.90;2.60;;;;;;;20.35;47.82;101736.47;5095347;28;20028;-59
2021/10/26 02:30:02;;;;;;;4.30;2.63;;;;;;;20.34;47.76;101746.19;5094297;28;20284;-60
2021/10/26 02:32:27;;;;;;;4.85;2.83;;;;;;;20.33;48.01;101749.81;5094955;28;20316;-60
2021/10/26 02:34:53;;;;;;;5.20;2.75;;;;;;;20.31;47.83;101749.06;5095023;28;20077;-61
2021/10/26 02:37:18;;;;;;;5.10;2.97;;;;;;;20.31;47.83;101754.38;5093916;28;20032;-59
2021/10/26 02:39:43;;;;;;;5.10;2.75;;;;;;;20.29;47.88;101746.53;5095003;28;20283;-60
2021/10/26 02:42:08;;;;;;;4.83;2.70;;;;;;;20.29;47.78;101745.72;5093948;28;20467;-60
2021/10/26 02:44:34;;;;;;;4.88;2.63;;;;;;;20.30;48.01;101756.19;5094968;28;20467;-60
2021/10/26 02:46:59;;;;;;;5.03;2.90;;;;;;;20.29;48.02;101754.50;5094527;28;20062;-60
2021/10/26 02:49:24;;;;;;;5.10;2.67;;;;;;;20.28;47.83;101751.97;5094003;27;20487;-61
2021/10/26 02:51:50;;;;;;;4.80;2.40;;;;;;;20.29;47.97;101764.25;5094347;28;20155;-60
2021/10/26 02:54:15;;;;;;;4.53;2.40;;;;;;;20.28;47.91;101766.06;5094216;28;20586;-61
2021/10/26 02:56:42;;;;;;;5.25;2.88;;;;;;;20.28;47.91;101767.84;5094054;28;20471;-60
2021/10/26 02:59:08;;;;;;;4.65;2.53;;;;;;;20.26;48.04;101770.59;5094330;28;20040;-60
2021/10/26 03:01:33;;;;;;;5.30;2.67;;;;;;;20.26;47.71;101765.31;5094593;28;20524;-60
2021/10/26 03:03:58;;;;;;;4.25;2.38;;;;;;;20.27;47.83;101774.94;5092888;28;20486;-61
2021/10/26 03:06:24;;;;;;;4.50;2.57;;;;;;;20.25;47.81;101762.78;5094444;28;20039;-60
2021/10/26 03:08:49;;;;;;;4.80;2.78;;;;;;;20.25;48.07;101770.72;5094332;28;20268;-61
2021/10/26 03:11:15;;;;;;;4.47;2.42;;;;;;;20.25;47.88;101770.72;5093445;28;20027;-61
2021/10/26 03:13:40;;;;;;;5.50;2.63;;;;;;;20.24;47.93;101771.69;5094335;28;20395;-59
2021/10/26 03:16:06;;;;;;;5.45;2.63;;;;;;;20.25;47.99;101773.38;5093930;28;20110;-60
2021/10/26 03:18:31;;;;;;;4.75;2.45;;;;;;;20.25;47.81;101773.38;5093783;28;20027;-60
2021/10/26 03:20:58;;;;;;;5.15;2.63;;;;;;;20.24;47.95;101779.63;5093991;28;20059;-61
2021/10/26 03:23:25;;;;;;;4.88;2.53;;;;;;;20.24;47.89;101782.28;5093993;28;20016;-61
2021/10/26 03:25:50;;;;;;;5.45;2.58;;;;;;;20.23;47.86;101785.88;5093418;28;20028;-61
2021/10/26 03:28:15;;;;;;;4.75;2.70;;;;;;;20.23;47.95;101775.28;5093614;28;20097;-59
2021/10/26 03:30:42;;;;;;;5.30;2.77;;;;;;;20.22;47.90;101786.81;5094055;28;20115;-60
2021/10/26 03:33:07;;;;;;;5.80;2.75;;;;;;;20.22;48.05;101778.88;5092943;28;20292;-60
2021/10/26 03:35:32;;;;;;;4.65;2.58;;;;;;;20.20;48.10;101786.97;5093897;28;20533;-61
2021/10/26 03:38:00;;;;;;;6.07;2.78;;;;;;;20.21;48.07;101785.16;5093336;28;20530;-60
2021/10/26 03:40:25;;;;;;;5.35;2.60;;;;;;;20.20;47.94;101786.09;5093175;28;20055;-61
2021/10/26 03:42:50;;;;;;;4.90;2.70;;;;;;;20.19;47.90;101787.91;5093872;28;20455;-60
2021/10/26 03:45:16;;;;;;;6.07;2.63;;;;;;;20.17;48.06;101775.75;5093622;28;20111;-60
2021/10/26 03:47:44;;;;;;;5.47;3.10;;;;;;;20.17;48.16;101781.91;5093155;28;20024;-61
2021/10/26 03:50:09;;;;;;;5.75;3.40;;;;;;;20.17;48.20;101792.50;5093427;28;20036;-60
2021/10/26 03:52:35;;;;;;;5.57;3.00;;;;;;;20.18;48.00;101790.69;5092648;28;20044;-60
2021/10/26 03:55:01;;;;;;;5.00;2.90;;;;;;;20.18;47.99;101793.31;5093627;28;20055;-61
2021/10/26 03:57:27;;;;;;;5.15;3.15;;;;;;;20.17;48.08;101797.78;5093612;28;20027;-60
2021/10/26 03:59:52;;;;;;;5.05;3.17;;;;;;;20.16;48.13;101790.78;5093077;28;20475;-61
2021/10/26 04:02:23;;;;;;;5.63;2.93;;;;;;;20.15;47.95;101783.81;5093135;28;20043;-60
2021/10/26 04:04:48;;;;;;;4.75;2.97;;;;;;;20.15;48.04;101783.81;5093368;28;20269;-61
2021/10/26 04:07:14;;;;;;;5.55;2.83;;;;;;;20.14;47.78;101787.44;5092115;28;20036;-60
2021/10/26 04:09:48;;;;;;;6.38;3.08;;;;;;;20.14;47.89;101784.78;5093436;28;20474;-61
2021/10/26 04:14:43;;;;;;;5.20;2.83;;;;;;;20.15;47.89;101788.25;5092445;28;20024;-61
2021/10/26 04:17:08;;;;;;;5.53;2.92;;;;;;;20.13;47.83;101785.72;5092637;28;20032;-60
2021/10/26 04:19:34;;;;;;;6.35;3.58;;;;;;;20.14;47.87;101786.56;5093024;28;20084;-60
2021/10/26 04:21:59;;;;;;;5.90;3.60;;;;;;;20.14;47.87;101791.84;5091541;28;20047;-60
2021/10/26 04:24:24;;;;;;;6.13;3.20;;;;;;;20.13;47.89;101790.19;5091637;28;20260;-60
2021/10/26 04:26:50;;;;;;;7.25;3.30;;;;;;;20.13;47.86;101790.19;5093048;28;20042;-59
2021/10/26 04:29:15;;;;;;;6.15;3.35;;;;;;;20.11;48.00;101795.59;5091947;28;20032;-60
2021/10/26 04:31:41;;;;;;;5.45;3.03;;;;;;;20.10;47.97;101807.97;5092828;28;20024;-59
2021/10/26 04:34:06;;;;;;;5.30;3.08;;;;;;;20.11;47.87;101803.53;5092411;28;20395;-59
2021/10/26 04:36:31;;;;;;;6.67;3.30;;;;;;;20.11;47.79;101819.41;5092278;28;20387;-60
2021/10/26 04:38:56;;;;;;;5.47;3.30;;;;;;;20.10;47.88;101817.72;5092530;28;20368;-60
2021/10/26 04:41:22;;;;;;;5.50;3.50;;;;;;;20.10;47.74;101817.72;5092911;28;20268;-60
2021/10/26 04:43:47;;;;;;;4.90;3.10;;;;;;;20.09;47.70;101821.31;5092003;28;20265;-60
2021/10/26 04:46:12;;;;;;;7.03;3.75;;;;;;;20.09;47.78;101824.81;5092364;28;20073;-61
2021/10/26 04:48:37;;;;;;;5.68;3.30;;;;;;;20.09;47.91;101821.31;5092462;28;20375;-60
2021/10/26 04:51:03;;;;;;;5.13;2.92;;;;;;;20.09;47.96;101829.25;5091661;28;20119;-61
2021/10/26 04:53:28;;;;;;;5.72;3.83;;;;;;;20.08;47.72;101823.13;5092731;28;20032;-59
2021/10/26 04:55:53;;;;;;;6.25;3.15;;;;;;;20.07;47.71;101818.78;5091779;28;20073;-60
2021/10/26 04:58:19;;;;;;;6.00;3.40;;;;;;;20.07;47.72;101821.41;5092400;28;20056;-60
2021/10/26 05:00:44;;;;;;;7.00;3.78;;;;;;;20.07;47.80;101816.13;5092723;28;20115;-60
2021/10/26 05:03:09;;;;;;;7.72;3.97;;;;;;;20.07;47.91;101812.66;5091426;28;20072;-61
2021/10/26 05:05:35;;;;;;;5.57;3.47;;;;;;;20.07;47.85;101818.78;5092477;28;20032;-61
2021/10/26 05:08:01;;;;;;;6.68;3.63;;;;;;;20.06;47.80;101817.09;5092396;28;20111;-61
2021/10/26 05:10:27;;;;;;;5.88;3.47;;;;;;;20.05;47.75;101826.00;5091870;28;20020;-61
2021/10/26 05:12:52;;;;;;;5.63;3.80;;;;;;;20.04;47.91;101819.00;5092369;28;20040;-61
2021/10/26 05:15:17;;;;;;;5.38;3.85;;;;;;;20.04;47.70;101823.47;5092113;28;20074;-60
2021/10/26 05:17:43;;;;;;;6.25;3.42;;;;;;;20.04;47.84;101826.09;5092193;28;20055;-60
2021/10/26 05:20:12;;;;;;;5.82;3.70;;;;;;;20.03;47.74;101827.09;5092280;28;20030;-60
2021/10/26 05:22:37;;;;;;;5.90;3.53;;;;;;;20.04;47.94;101834.88;5092570;28;20077;-61
2021/10/26 05:25:03;;;;;;;5.35;3.08;;;;;;;20.07;47.89;101836.47;5091439;28;20056;-60
2021/10/26 05:27:28;;;;;;;5.85;3.10;;;;;;;20.15;47.94;101823.50;5092532;28;20024;-61
2021/10/26 05:29:54;;;;;;;5.45;3.00;;;;;;;20.28;48.11;101826.94;5092320;28;20040;-60
2021/10/26 05:32:20;;;;;;;4.78;2.92;;;;;;;20.39;47.71;101826.09;5091090;28;20427;-60
2021/10/26 05:34:46;;;;;;;6.43;3.10;;;;;;;20.50;47.48;101835.06;5093967;28;20028;-60
2021/10/26 05:37:12;;;;;;;5.18;3.10;;;;;;;20.57;47.51;101839.78;5095965;28;20020;-60
2021/10/26 05:39:38;;;;;;;5.35;2.90;;;;;;;20.62;47.42;101840.25;5095594;28;20490;-60
2021/10/26 05:42:04;;;;;;;5.20;3.00;;;;;;;20.71;47.14;101845.84;5095676;28;20035;-60
2021/10/26 05:44:30;;;;;;;5.75;2.80;;;;;;;20.77;46.98;101846.22;5095992;28;20026;-61
2021/10/26 05:46:55;;;;;;;4.55;2.53;;;;;;;20.84;46.70;101838.66;5094963;28;20038;-62
2021/10/26 05:49:21;;;;;;;4.53;2.40;;;;;;;20.89;46.52;101841.78;5096174;28;20055;-60
2021/10/26 05:51:46;;;;;;;5.90;2.90;;;;;;;20.90;46.53;101848.75;5095659;28;20429;-60
2021/10/26 05:54:11;;;;;;;6.38;3.75;;;;;;;20.91;46.39;101855.75;5094951;28;20036;-60
2021/10/26 05:56:37;;;;;;;6.13;3.50;;;;;;;20.91;46.53;101865.50;5095826;28;20067;-60
2021/10/26 05:59:02;;;;;;;5.55;3.00;;;;;;;20.91;46.75;101866.34;5094640;28;20280;-60
2021/10/26 06:01:27;;;;;;;5.57;2.90;;;;;;;20.92;46.73;101868.03;5095686;28;20051;-60
2021/10/26 06:03:52;;;;;;;4.40;2.65;;;;;;;20.94;46.56;101868.75;5095633;28;20031;-60
2021/10/26 06:06:18;;;;;;;4.33;2.63;;;;;;;20.94;46.83;101876.72;5094492;28;20036;-60
2021/10/26 06:08:45;;;;;;;5.10;2.78;;;;;;;20.95;46.71;101881.06;5095670;28;20272;-61
2021/10/26 06:11:13;;;;;;;5.28;2.75;;;;;;;20.97;46.73;101883.59;5095093;28;20479;-60
2021/10/26 06:13:43;;;;;;;4.63;2.80;;;;;;;20.99;46.74;101882.50;5094819;28;20119;-61
2021/10/26 06:16:08;;;;;;;5.50;2.92;;;;;;;21.03;46.91;101885.78;5095280;28;20024;-60
2021/10/26 06:18:34;;;;;;;4.30;2.47;;;;;;;21.05;46.64;101890.97;5095360;28;20030;-60
2021/10/26 06:21:01;;;;;;;5.70;3.17;;;;;;;21.07;46.77;101896.97;5094446;28;20030;-60
2021/10/26 06:23:29;;;;;;;6.88;3.03;;;;;;;21.08;46.56;101896.00;5095525;28;20475;-60
2021/10/26 06:25:55;;;;;;;5.10;2.70;;;;;;;21.10;46.55;101886.13;5095198;28;20111;-66
2021/10/26 06:28:20;;;;;;;5.35;2.92;;;;;;;21.09;46.51;101895.03;5094179;28;20051;-63
2021/10/26 06:30:48;;;;;;;5.20;2.70;;;;;;;21.10;46.69;101907.34;5095093;28;20507;-63
2021/10/26 06:33:13;;;;;;;5.03;2.50;;;;;;;21.11;46.83;101909.88;5094722;28;20028;-64
2021/10/26 06:35:38;;;;;;;6.07;2.60;;;;;;;21.14;46.33;101917.59;5094284;28;20477;-63
2021/10/26 06:38:06;;;;;;;5.88;2.63;;;;;;;21.17;46.58;101908.53;5094666;28;20363;-63
2021/10/26 06:40:32;;;;;;;5.05;2.88;;;;;;;21.18;46.45;101910.22;5095025;28;20024;-65
2021/10/26 06:42:58;;;;;;;5.10;2.67;;;;;;;21.16;46.57;101891.78;5094504;28;20047;-64
2021/10/26 06:45:24;;;;;;;6.05;2.70;;;;;;;21.14;46.76;101903.47;5094436;28;20024;-63
2021/10/26 06:47:50;;;;;;;4.85;2.70;;;;;;;21.14;46.84;101900.81;5094936;28;20032;-63
2021/10/26 06:50:15;;;;;;;4.78;2.47;;;;;;;21.16;46.76;101893.63;5093723;28;20024;-64
2021/10/26 06:52:41;;;;;;;4.35;2.42;;;;;;;21.18;46.76;101902.28;5094435;28;20055;-63
2021/10/26 06:55:07;;;;;;;5.47;3.08;;;;;;;21.24;46.65;101900.94;5094330;28;20498;-63
2021/10/26 06:57:33;;;;;;;4.53;2.42;;;;;;;21.28;46.35;101905.88;5093844;28;20063;-63
2021/10/26 06:59:59;;;;;;;5.60;2.65;;;;;;;21.32;46.45;101912.66;5093992;28;20074;-61
2021/10/26 07:02:24;;;;;;;4.82;2.42;;;;;;;21.36;46.29;101907.94;5093918;28;20023;-64
2021/10/26 07:04:49;;;;;;;5.60;2.58;;;;;;;21.41;46.27;101907.59;5094614;28;20478;-62
2021/10/26 07:07:15;;;;;;;5.60;2.58;;;;;;;21.39;46.45;101902.41;5094027;28;20020;-62
2021/10/26 07:09:40;;;;;;;4.93;2.55;;;;;;;21.39;46.26;101905.06;5093666;28;20074;-62
2021/10/26 07:12:06;;;;;;;4.60;2.25;;;;;;;21.37;46.77;101907.00;5093922;28;20020;-60
2021/10/26 07:14:31;;;;;;;5.75;2.78;;;;;;;21.35;46.63;101916.88;5094300;28;20020;-61
2021/10/26 07:16:56;;;;;;;5.13;2.40;;;;;;;21.29;46.83;101910.22;5093405;28;20039;-61
2021/10/26 07:19:22;;;;;;;4.50;2.33;;;;;;;21.29;46.91;101910.22;5094290;28;20024;-61
2021/10/26 07:21:48;;;;;;;5.28;2.42;;;;;;;21.37;46.77;101928.19;5094298;28;20265;-61
2021/10/26 07:24:14;;;;;;;4.68;2.60;;;;;;;21.42;46.46;101930.50;5093025;28;20518;-60
2021/10/26 07:26:40;;;;;;;5.22;2.53;;;;;;;21.45;46.50;101943.53;5093943;28;20165;-62
2021/10/26 07:29:05;;;;;;;4.85;2.58;;;;;;;21.43;46.58;101943.63;5093530;28;20482;-63
2021/10/26 07:31:31;;;;;;;6.47;2.22;;;;;;;21.49;46.49;101953.81;5093327;28;20024;-62
2021/10/26 07:33:58;;;;;;;4.38;2.25;;;;;;;21.54;46.29;101946.31;5093732;28;20043;-61
2021/10/26 07:36:30;;;;;;;4.18;2.13;;;;;;;21.55;46.18;101955.97;5093758;28;20098;-62
2021/10/26 07:39:05;;;;;;;5.43;2.05;;;;;;;21.55;46.20;101971.88;5092827;28;20471;-63
2021/10/26 07:41:31;;;;;;;6.90;2.30;;;;;;;21.54;46.07;101961.41;5093457;28;20032;-65
2021/10/26 07:43:59;;;;;;;5.18;2.40;;;;;;;21.55;46.03;101971.03;5093104;28;20039;-64
2021/10/26 07:46:24;;;;;;;4.90;2.40;;;;;;;21.57;45.82;101958.50;5092907;28;20390;-64
2021/10/26 07:48:49;;;;;;;4.22;1.98;;;;;;;21.56;45.87;101957.63;5093475;28;20095;-64
2021/10/26 07:51:15;;;;;;;5.13;2.70;;;;;;;21.56;45.75;101955.00;5092964;28;20028;-65
2021/10/26 07:53:40;;;;;;;4.55;2.58;;;;;;;21.55;45.65;101953.31;5092586;28;20300;-62
2021/10/26 07:56:08;;;;;;;4.53;2.20;;;;;;;21.55;45.80;101955.09;5092962;28;20101;-63
2021/10/26 07:58:35;;;;;;;5.28;2.38;;;;;;;21.54;45.73;101954.28;5091979;28;20028;-67
2021/10/26 08:01:00;;;;;;;4.60;2.67;;;;;;;21.55;45.53;101960.41;5093159;28;20119;-64
2021/10/26 08:03:26;;;;;;;5.07;2.30;;;;;;;21.54;45.47;101956.94;5093459;28;20044;-64
2021/10/26 08:05:53;;;;;;;4.60;2.20;;;;;;;21.52;45.85;101969.47;5092512;28;20724;-64
2021/10/26 08:08:18;;;;;;;7.00;2.50;;;;;;;21.45;46.00;101965.56;5092747;28;20360;-64
2021/10/26 08:10:44;;;;;;;3.67;2.10;;;;;;;21.42;46.25;101962.31;5093064;28;20119;-64
2021/10/26 08:13:10;;;;;;;5.03;2.60;;;;;;;21.46;46.25;101966.41;5091757;28;20096;-64
2021/10/26 08:15:35;;;;;;;4.82;2.28;;;;;;;21.48;46.10;101964.50;5092964;28;20020;-64
2021/10/26 08:18:01;;;;;;;4.10;1.93;;;;;;;21.50;46.13;101970.53;5092673;28;20028;-64
2021/10/26 08:20:26;;;;;;;5.20;2.00;;;;;;;21.51;45.88;101962.47;5092182;28;20676;-64
2021/10/26 08:22:52;;;;;;;4.10;1.98;;;;;;;21.52;45.91;101971.25;5092971;28;20077;-63
2021/10/26 08:25:24;;;;;;;4.70;2.30;;;;;;;21.51;46.00;101967.78;5092555;28;20360;-63
2021/10/26 08:27:55;;;;;;;5.97;2.28;;;;;;;21.51;46.05;101962.47;5092187;28;20423;-63
2021/10/26 08:30:38;;;;;;;6.15;2.30;;;;;;;21.52;46.00;101972.13;5092818;28;20020;-63
2021/10/26 08:33:17;;;;;;;4.82;2.05;;;;;;;21.52;45.97;101968.63;5092452;28;20032;-64
2021/10/26 08:35:51;;;;;;;5.32;2.30;;;;;;;21.49;46.08;101964.41;5092122;28;20028;-70
2021/10/26 08:38:17;;;;;;;5.18;2.35;;;;;;;21.40;46.18;101962.44;5094436;28;20039;-64
2021/10/26 08:40:48;;;;;;;7.07;2.80;;;;;;;21.37;46.53;101968.81;5093840;28;20024;-64
2021/10/26 08:43:16;;;;;;;7.45;2.80;;;;;;;21.38;46.37;101973.16;5093776;28;20449;-63
2021/10/26 08:45:44;;;;;;;5.82;2.38;;;;;;;21.43;46.37;101966.63;5093351;28;20028;-64
2021/10/26 08:48:14;;;;;;;5.20;2.33;;;;;;;21.46;46.26;101972.56;5092136;28;20172;-64
2021/10/26 08:50:39;;;;;;;4.72;2.50;;;;;;;21.52;45.92;101976.56;5093860;28;20088;-64
2021/10/26 08:53:06;;;;;;;6.82;2.42;;;;;;;21.56;46.31;101981.50;5092693;28;20052;-65
2021/10/26 08:55:37;;;;;;;5.65;2.42;;;;;;;21.62;46.16;101974.91;5092533;28;20096;-65
2021/10/26 08:58:09;;;;;;;5.82;2.22;;;;;;;21.64;46.04;101972.13;5093814;28;20032;-65
2021/10/26 09:00:36;;;;;;;5.25;2.58;;;;;;;21.66;46.02;101986.09;5094797;28;20046;-64
2021/10/26 09:03:25;;;;;;;4.32;2.22;;;;;;;21.66;45.99;101973.69;5092508;28;20066;-64
2021/10/26 09:05:51;;;;;;;6.10;2.60;;;;;;;21.70;46.01;101967.19;5094069;28;20467;-64
2021/10/26 09:08:26;;;;;;;6.25;2.30;;;;;;;21.72;45.69;101967.88;5095015;28;20035;-65
2021/10/26 09:10:52;;;;;;;5.85;2.67;;;;;;;21.75;45.98;101964.16;5097338;28;20486;-64
2021/10/26 09:16:43;;;;;;;5.32;2.28;;;;;;;21.76;45.97;101957.03;5096575;28;20089;-63
2021/10/26 09:19:15;;;;;;;6.15;2.40;;;;;;;21.78;45.74;101960.41;5097042;28;20482;-67
2021/10/26 09:21:42;;;;;;;5.20;2.55;;;;;;;21.79;45.61;101960.28;5097407;28;20024;-66
2021/10/26 09:24:12;;;;;;;6.45;2.40;;;;;;;21.76;45.58;101957.03;5101255;28;20031;-65
2021/10/26 09:26:51;;;;;;;5.10;2.35;;;;;;;21.74;45.55;101960.63;5097358;28;20051;-63
2021/10/26 09:29:19;;;;;;;5.38;2.70;;;;;;;21.73;45.74;101958.97;5096671;28;20032;-64
2021/10/26 09:31:45;;;;;;;5.03;2.53;;;;;;;21.74;45.95;101965.94;5096522;28;20054;-63
2021/10/26 09:34:16;;;;;;;4.68;2.58;;;;;;;21.77;45.95;101972.00;5097907;28;20032;-62
2021/10/26 09:36:44;;;;;;;4.95;2.75;;;;;;;21.75;45.84;101969.47;5099851;28;20024;-64
2021/10/26 09:39:16;;;;;;;4.50;2.42;;;;;;;21.73;45.86;101971.41;5095484;28;20150;-64
2021/10/26 09:41:50;;;;;;;5.65;2.80;;;;;;;21.72;45.89;101962.59;5096819;28;20024;-64
2021/10/26 09:44:17;;;;;;;5.93;2.55;;;;;;;21.71;45.82;101971.53;5096444;28;20129;-64
2021/10/26 09:46:52;;;;;;;6.30;2.83;;;;;;;21.72;45.75;101978.50;5097885;28;20028;-64
2021/10/26 09:49:29;;;;;;;5.15;2.65;;;;;;;21.70;45.83;101967.19;5098150;28;20032;-63
2021/10/26 09:52:31;;;;;;;6.75;2.88;;;;;;;21.72;45.71;101978.50;5097056;28;20040;-64
2021/10/26 09:55:14;;;;;;;9.93;3.00;;;;;;;21.72;45.88;101965.22;5095557;28;20119;-63
2021/10/26 09:57:46;;;;;;;4.90;2.40;;;;;;;21.70;45.93;101966.34;5097926;28;20036;-62
2021/10/26 10:00:13;;;;;;;6.35;3.10;;;;;;;21.68;46.05;101973.56;5096984;28;20028;-68
2021/10/26 10:02:39;;;;;;;5.07;2.35;;;;;;;21.70;45.74;101976.94;5095855;28;20040;-66
2021/10/26 10:05:24;;;;;;;6.43;2.83;;;;;;;21.72;45.77;101978.50;5097546;28;20374;-66
2021/10/26 10:07:50;;;;;;;5.43;2.50;;;;;;;21.77;45.95;101972.84;5097014;28;20032;-67
2021/10/26 10:10:15;;;;;;;5.05;2.72;;;;;;;21.80;45.90;101977.91;5096627;28;20032;-66
2021/10/26 10:12:44;;;;;;;4.72;2.33;;;;;;;21.84;46.12;101976.69;5095863;28;20028;-64
2021/10/26 10:15:11;;;;;;;4.55;2.40;;;;;;;21.88;45.87;101978.13;5097767;28;20043;-64
2021/10/26 10:17:36;;;;;;;6.30;2.72;;;;;;;21.91;45.89;101974.41;5096402;28;20122;-67
2021/10/26 10:20:10;;;;;;;5.47;2.20;;;;;;;21.89;45.79;101977.19;5093808;28;20118;-67
2021/10/26 10:22:38;;;;;;;5.73;2.50;;;;;;;21.88;45.90;101974.63;5095948;28;20036;-65
2021/10/26 10:25:06;;;;;;;5.57;2.60;;;;;;;21.86;45.98;101969.44;5095788;28;20124;-64
2021/10/26 10:27:43;;;;;;;4.70;2.28;;;;;;;21.86;45.93;101977.41;5096445;28;20028;-66
2021/10/26 10:30:09;;;;;;;4.60;2.45;;;;;;;21.88;46.34;101977.28;5096705;28;20418;-66
2021/10/26 10:32:35;;;;;;;5.90;2.47;;;;;;;21.88;45.97;101978.13;5095779;28;20124;-64
2021/10/26 10:35:03;;;;;;;5.30;2.75;;;;;;;21.88;46.12;101978.13;5094479;28;20115;-66
2021/10/26 10:37:30;;;;;;;5.57;2.30;;;;;;;21.88;46.26;101969.34;5095871;28;20438;-66
2021/10/26 10:39:58;;;;;;;6.07;2.85;;;;;;;21.88;46.27;101964.03;5095465;28;20039;-67
2021/10/26 10:42:26;;;;;;;4.40;2.40;;;;;;;21.88;46.26;101966.69;5094713;28;20032;-69
2021/10/26 10:45:00;;;;;;;4.57;2.20;;;;;;;21.88;46.36;101961.38;5094896;28;20112;-70
2021/10/26 10:47:39;;;;;;;5.03;2.70;;;;;;;21.85;46.32;101961.63;5094328;28;20031;-68
2021/10/26 10:50:20;;;;;;;5.70;2.50;;;;;;;21.86;46.24;101961.50;5094743;28;20751;-68
2021/10/26 10:53:04;;;;;;;5.60;2.63;;;;;;;21.84;46.37;101957.25;5094724;28;20109;-64
2021/10/26 10:55:30;;;;;;;4.90;2.13;;;;;;;21.82;46.33;101949.41;5094189;28;20457;-68
2021/10/26 10:57:55;;;;;;;4.65;2.30;;;;;;;21.80;46.60;101950.53;5094931;28;20032;-68
2021/10/26 11:00:24;;;;;;;4.75;2.50;;;;;;;21.78;46.79;101952.44;5094472;28;20020;-68
2021/10/26 11:02:57;;;;;;;6.65;2.55;;;;;;;21.78;46.92;101941.81;5093817;28;20048;-64
2021/10/26 11:05:40;;;;;;;4.82;2.28;;;;;;;21.79;46.80;101947.00;5094703;28;20027;-63
2021/10/26 11:08:07;;;;;;;4.13;2.22;;;;;;;21.84;46.54;101939.56;5094371;28;20049;-65
2021/10/26 11:10:55;;;;;;;5.72;2.22;;;;;;;21.82;46.63;101949.41;5093811;28;20487;-65
2021/10/26 11:13:26;;;;;;;5.72;2.42;;;;;;;21.81;46.94;101939.78;5094096;28;20123;-62
2021/10/26 11:15:55;;;;;;;4.32;2.22;;;;;;;21.76;46.83;101935.81;5093739;28;20547;-59
2021/10/26 11:18:32;;;;;;;5.22;2.20;;;;;;;21.78;46.72;101945.34;5093864;28;20309;-65
2021/10/26 11:20:57;;;;;;;4.22;2.35;;;;;;;21.80;46.86;101947.88;5094465;28;20052;-63
2021/10/26 11:23:44;;;;;;;6.50;2.20;;;;;;;21.76;46.79;101934.00;5093511;28;20051;-66
2021/10/26 11:26:40;;;;;;;4.72;2.53;;;;;;;21.75;46.77;101937.63;5094087;28;20084;-63
2021/10/26 11:29:14;;;;;;;4.25;1.85;;;;;;;21.72;46.82;101930.75;5089808;28;20040;-63
2021/10/26 11:31:49;;;;;;;5.55;2.33;;;;;;;21.70;46.93;101945.13;5093984;28;20190;-64